Dime Box, Texas
Current Conditions -  °F | °C
As of 8:50 AM on Tuesday 21 Oct 2014 (Local Time) from KRWV Reporting Station
Clear Clear  
Wind Chill: 61°   Ceiling: Unl
Heat Index: 61°   Visibility: 10mi
Dew Point: 61°   Wind: 0mph
Humidity: 100%   Direction: NA
Pressure: 30.13"   Gusts: NA
Location:  30.36°N, 96.82°W
Report Text: KRWV 211350Z AUTO 00000KT 10SM CLR 16/16 A3013 RMK AO2
Loading
Personal Weather Stations






























Interactive Weather Map
Tropical Storm Tracking
New forecast layout! Learn more

10-Day Weather Forecast

Advertisements
Track Severe Weather on mobile